Time;durP1;ratioP1;P1;durP2;ratioP2;P2;SDS_P1;SDS_P2;PMS_P1;PMS_P2;Temp;Humidity;BMP_temperature;BMP_pressure;BME280_temperature;BME280_humidity;BME280_pressure;Samples;Min_cycle;Max_cycle;Signal;HPM_P1;HPM_P2
2022/01/20 00:02:35;;;;;;;19.15;14.93;;;;;;;3.07;62.03;99387.06;5066324;28;20036;-65
2022/01/20 00:05:25;;;;;;;18.27;13.05;;;;;;;3.10;61.94;99425.41;5065855;28;20061;-65
2022/01/20 00:27:55;;;;;;;15.23;11.55;;;;;;;3.14;61.35;99372.06;5065121;28;20192;-65
2022/01/20 00:30:38;;;;;;;16.38;11.65;;;;;;;3.17;61.65;99374.63;5064498;28;20104;-65
2022/01/20 00:33:20;;;;;;;16.27;11.88;;;;;;;2.19;61.47;99217.38;5065296;28;20048;-65
2022/01/20 00:38:44;;;;;;;15.15;11.55;;;;;;;3.20;61.31;99366.69;5065582;28;20188;-65
2022/01/20 00:41:16;;;;;;;15.10;11.40;;;;;;;3.21;60.99;99376.25;5065504;28;20049;-65
2022/01/20 00:43:48;;;;;;;13.32;10.13;;;;;;;3.21;61.37;99384.13;5065105;28;20158;-65
2022/01/20 00:46:21;;;;;;;15.25;12.10;;;;;;;3.18;61.20;99398.16;5065361;28;20300;-65
2022/01/20 00:48:53;;;;;;;14.82;10.15;;;;;;;3.19;61.34;99406.88;5064663;28;20041;-65
2022/01/20 00:51:25;;;;;;;14.93;12.07;;;;;;;3.17;61.45;99396.44;5065137;28;20044;-64
2022/01/20 00:53:59;;;;;;;14.25;11.40;;;;;;;3.18;61.60;99381.56;5065403;28;20041;-64
2022/01/20 00:56:31;;;;;;;14.68;10.50;;;;;;;3.19;61.16;99375.44;5065270;28;20057;-65
2022/01/20 00:59:03;;;;;;;15.52;10.32;;;;;;;3.20;61.32;99375.41;5065143;28;20041;-65
2022/01/20 01:01:36;;;;;;;13.50;9.88;;;;;;;3.20;61.12;99379.78;5065328;28;20045;-65
2022/01/20 01:04:08;;;;;;;11.95;9.35;;;;;;;3.24;61.02;99398.91;5066728;28;20358;-65
2022/01/20 01:06:57;;;;;;;15.43;10.63;;;;;;;3.24;61.13;99381.41;5069618;28;20104;-65
2022/01/20 01:09:32;;;;;;;16.27;10.63;;;;;;;3.22;60.93;99383.22;5068832;28;20041;-65
2022/01/20 01:12:06;;;;;;;12.85;10.10;;;;;;;3.25;60.73;99375.28;5068496;28;20231;-65
2022/01/20 01:14:44;;;;;;;13.75;10.13;;;;;;;3.25;60.89;99405.84;5068834;28;20235;-65
2022/01/20 01:20:16;;;;;;;17.65;11.07;;;;;;;3.29;60.70;99416.22;5068924;28;20239;-65
2022/01/20 01:22:48;;;;;;;15.25;10.95;;;;;;;3.26;60.68;99404.94;5069271;28;20091;-65
2022/01/20 01:25:21;;;;;;;11.23;8.88;;;;;;;3.25;60.79;99398.84;5069184;28;20040;-65
2022/01/20 01:27:54;;;;;;;13.63;10.02;;;;;;;3.25;60.73;99405.84;5068714;28;20041;-65
2022/01/20 01:30:50;;;;;;;12.68;8.65;;;;;;;3.30;60.66;99399.59;5068435;28;20317;-65
2022/01/20 01:33:24;;;;;;;14.50;8.70;;;;;;;3.28;60.57;99417.13;5068721;28;20083;-66
2022/01/20 01:35:56;;;;;;;11.93;9.27;;;;;;;2.54;60.31;99291.53;5068676;28;20036;-65
2022/01/20 01:38:37;;;;;;;11.82;9.00;;;;;;;3.33;60.44;99396.03;5068067;28;20199;-65
2022/01/20 01:41:14;;;;;;;10.80;8.75;;;;;;;3.00;60.30;99351.47;5067955;28;20045;-65
2022/01/20 01:43:50;;;;;;;11.73;9.07;;;;;;;3.35;60.31;99384.63;5068794;28;20289;-66
2022/01/20 01:46:22;;;;;;;11.80;8.68;;;;;;;3.34;60.15;99377.66;5068276;28;20067;-65
2022/01/20 01:48:56;;;;;;;12.85;8.32;;;;;;;3.34;60.30;99375.03;5068610;28;20037;-65
2022/01/20 01:51:28;;;;;;;9.95;7.45;;;;;;;3.38;60.15;99360.97;5068215;28;20064;-65
2022/01/20 01:54:01;;;;;;;12.50;8.57;;;;;;;3.36;60.33;99362.78;5068072;28;20037;-65
2022/01/20 01:56:36;;;;;;;11.07;8.55;;;;;;;3.39;60.21;99365.31;5068119;28;20049;-65
2022/01/20 01:59:08;;;;;;;10.75;7.68;;;;;;;3.36;60.23;99375.88;5067683;28;20083;-65
2022/01/20 02:01:41;;;;;;;10.10;8.38;;;;;;;3.35;60.23;99387.25;5068174;28;20247;-65
2022/01/20 02:04:17;;;;;;;12.40;8.88;;;;;;;3.27;60.50;99390.97;5067848;28;20118;-66
2022/01/20 02:17:49;;;;;;;10.32;7.97;;;;;;;3.31;60.47;99376.88;5027402;28;20057;-65
2022/01/20 02:18:36;;;;;;;9.50;7.40;;;;;;;3.33;60.44;99370.72;5067128;28;20045;-65
2022/01/20 02:21:10;;;;;;;10.27;7.40;;;;;;;3.38;60.53;99370.59;5067493;28;20086;-64
2022/01/20 02:23:43;;;;;;;12.27;7.95;;;;;;;3.43;60.21;99374.81;5067402;28;20289;-65
2022/01/20 02:26:15;;;;;;;10.50;8.23;;;;;;;3.05;60.07;99312.06;5067817;28;20049;-65
2022/01/20 02:28:47;;;;;;;8.88;6.82;;;;;;;3.44;60.12;99350.34;5067762;28;20232;-65
2022/01/20 02:31:20;;;;;;;9.55;6.78;;;;;;;2.63;60.04;99209.31;5067351;28;20037;-65
2022/01/20 02:33:54;;;;;;;11.23;7.55;;;;;;;3.48;59.89;99336.25;5068008;28;20045;-65
2022/01/20 02:36:29;;;;;;;9.85;6.93;;;;;;;3.51;59.98;99330.94;5068238;28;20208;-65
2022/01/20 02:39:07;;;;;;;11.00;6.78;;;;;;;3.51;59.95;99348.41;5067768;28;20041;-65
2022/01/20 02:47:21;;;;;;;9.18;6.25;;;;;;;3.53;59.60;99325.66;5067693;28;20048;-65
2022/01/20 02:49:53;;;;;;;10.48;6.90;;;;;;;3.56;59.50;99316.84;5066811;28;20041;-65
2022/01/20 02:52:28;;;;;;;10.00;6.63;;;;;;;2.64;59.15;99175.28;5066685;28;20090;-65
2022/01/20 02:55:00;;;;;;;7.55;6.15;;;;;;;3.60;59.36;99315.84;5067349;28;20045;-65
2022/01/20 02:57:33;;;;;;;9.82;7.60;;;;;;;3.62;59.16;99321.91;5067420;28;20041;-65
2022/01/20 03:00:06;;;;;;;11.13;7.30;;;;;;;3.64;59.11;99320.09;5067219;28;20052;-65
2022/01/20 03:02:41;;;;;;;7.28;5.40;;;;;;;3.61;58.93;99317.56;5067111;28;20045;-65
2022/01/20 03:05:13;;;;;;;;;;;;;;;3.59;58.77;99324.63;5067283;28;20064;-65
2022/01/20 03:07:47;;;;;;;8.90;5.53;;;;;;;3.61;58.62;99300.09;5066896;28;19921;-65
2022/01/20 03:10:19;;;;;;;8.40;6.25;;;;;;;3.66;58.64;99311.31;5066829;28;20089;-65
2022/01/20 03:12:52;;;;;;;9.15;5.68;;;;;;;3.68;58.19;99303.41;5066907;28;20044;-65
2022/01/20 03:15:24;;;;;;;9.65;6.00;;;;;;;3.74;57.95;99308.47;5066963;28;20068;-65
2022/01/20 03:17:57;;;;;;;9.32;6.00;;;;;;;3.77;58.09;99293.50;5066584;28;20041;-64
2022/01/20 03:20:29;;;;;;;8.00;5.72;;;;;;;3.79;58.06;99314.44;5066462;28;20045;-65
2022/01/20 03:23:03;;;;;;;6.22;4.82;;;;;;;3.46;57.98;99251.59;5066295;28;20041;-65
2022/01/20 03:25:36;;;;;;;7.80;5.95;;;;;;;3.80;58.06;99303.03;5065723;28;20091;-65
2022/01/20 03:28:08;;;;;;;8.70;6.15;;;;;;;3.79;58.08;99312.69;5066193;28;20182;-65
2022/01/20 03:30:40;;;;;;;6.75;5.18;;;;;;;3.81;58.05;99323.13;5066105;28;20040;-65
2022/01/20 03:33:12;;;;;;;7.55;5.47;;;;;;;3.82;58.16;99296.00;5066069;28;20048;-65
2022/01/20 03:35:45;;;;;;;7.85;5.28;;;;;;;3.82;58.03;99309.09;5065919;28;20045;-65
2022/01/20 03:38:19;;;;;;;7.30;5.88;;;;;;;3.81;58.16;99295.13;5066138;28;20043;-65
2022/01/20 03:40:51;;;;;;;7.53;5.72;;;;;;;3.46;58.04;99228.00;5065920;28;20040;-65
2022/01/20 03:43:21;;;;;;;8.50;5.72;;;;;;;3.84;57.99;99302.06;5065954;28;20041;-65
2022/01/20 03:45:56;;;;;;;8.02;5.65;;;;;;;3.86;57.84;99313.34;5066023;28;20045;-65
2022/01/20 03:48:29;;;;;;;8.10;5.65;;;;;;;3.87;57.89;99294.09;5065951;28;20099;-65
2022/01/20 03:51:03;;;;;;;7.75;5.28;;;;;;;3.89;58.00;99286.19;5066009;28;20051;-65
2022/01/20 03:53:38;;;;;;;7.00;5.32;;;;;;;3.83;57.98;99289.84;5066443;28;20220;-64
2022/01/20 03:56:10;;;;;;;7.32;5.15;;;;;;;3.85;57.95;99302.00;5066041;28;20151;-65
2022/01/20 03:58:43;;;;;;;9.50;6.25;;;;;;;3.88;57.82;99314.19;5065903;28;20041;-65
2022/01/20 04:01:15;;;;;;;9.48;6.35;;;;;;;3.90;57.86;99304.50;5064762;28;20099;-65
2022/01/20 04:03:48;;;;;;;9.68;6.65;;;;;;;3.93;57.87;99304.41;5065732;28;20044;-66
2022/01/20 04:06:20;;;;;;;9.00;5.75;;;;;;;3.91;57.85;99308.84;5065833;28;20052;-65
2022/01/20 04:08:54;;;;;;;6.22;4.55;;;;;;;3.89;57.88;99292.28;5065663;28;20116;-65
2022/01/20 04:11:28;;;;;;;7.38;5.97;;;;;;;3.91;57.76;99292.25;5065157;28;20087;-65
2022/01/20 04:14:02;;;;;;;7.65;4.60;;;;;;;3.93;57.85;99283.44;5065429;28;20083;-65
2022/01/20 04:16:49;;;;;;;6.70;4.43;;;;;;;3.92;57.72;99292.22;5065645;28;20095;-65
2022/01/20 04:19:22;;;;;;;7.63;5.90;;;;;;;3.91;57.78;99277.38;5065335;28;20656;-65
2022/01/20 04:21:54;;;;;;;6.68;5.05;;;;;;;3.91;57.73;99285.25;5065281;28;20041;-65
2022/01/20 04:24:28;;;;;;;7.85;5.13;;;;;;;3.93;57.87;99269.47;5065297;28;20084;-65
2022/01/20 04:27:00;;;;;;;7.65;4.75;;;;;;;3.93;57.83;99262.47;5065574;28;20090;-65
2022/01/20 04:29:34;;;;;;;6.60;5.10;;;;;;;3.93;57.98;99282.56;5065243;28;20041;-65
2022/01/20 04:32:06;;;;;;;7.75;5.50;;;;;;;3.96;57.91;99267.63;5065498;28;20049;-65
2022/01/20 04:34:39;;;;;;;6.30;4.88;;;;;;;3.68;57.85;99222.16;5064766;28;20049;-65
2022/01/20 04:37:12;;;;;;;7.65;5.80;;;;;;;3.95;58.03;99297.38;5065547;28;20045;-65
2022/01/20 04:39:49;;;;;;;9.93;5.63;;;;;;;3.32;57.89;99175.16;5068062;28;20051;-65
2022/01/20 04:42:24;;;;;;;6.95;5.30;;;;;;;3.69;58.21;99216.84;5069404;28;20048;-65
2022/01/20 04:45:00;;;;;;;7.95;5.28;;;;;;;3.94;58.20;99273.81;5069506;28;20045;-65
2022/01/20 04:47:40;;;;;;;7.35;5.10;;;;;;;3.94;58.26;99271.19;5069328;28;20090;-65
2022/01/20 04:58:45;;;;;;;6.75;5.15;;;;;;;3.94;58.48;99255.44;5068830;28;20231;-65
2022/01/20 05:01:18;;;;;;;9.65;5.07;;;;;;;3.96;58.47;99266.75;5069142;28;20041;-65
2022/01/20 05:03:50;;;;;;;9.00;5.30;;;;;;;3.98;58.55;99281.53;5068614;28;20049;-65
2022/01/20 05:06:22;;;;;;;7.40;5.43;;;;;;;3.93;58.54;99277.34;5068292;28;20049;-65
2022/01/20 05:08:54;;;;;;;6.60;5.25;;;;;;;3.79;58.61;99252.38;5068627;28;20036;-65
2022/01/20 05:11:28;;;;;;;7.05;4.78;;;;;;;3.93;58.82;99256.34;5068938;28;20045;-65
2022/01/20 05:14:00;;;;;;;6.57;4.65;;;;;;;3.93;58.62;99265.09;5068651;28;20047;-65
2022/01/20 05:16:32;;;;;;;5.45;4.40;;;;;;;3.90;58.69;99267.78;5067978;28;20041;-65
2022/01/20 05:19:04;;;;;;;6.25;4.55;;;;;;;3.90;58.74;99248.59;5068515;28;20044;-65
2022/01/20 05:21:37;;;;;;;6.75;4.97;;;;;;;3.92;58.75;99258.13;5068765;28;20045;-65
2022/01/20 05:24:09;;;;;;;7.32;4.80;;;;;;;3.90;58.90;99244.19;5068360;28;20040;-65
2022/01/20 05:26:42;;;;;;;6.60;4.80;;;;;;;2.94;58.65;99116.00;5068636;28;20095;-65
2022/01/20 05:29:15;;;;;;;6.43;4.95;;;;;;;3.90;58.92;99259.06;5068594;28;20041;-65
2022/01/20 05:31:47;;;;;;;5.45;4.00;;;;;;;3.64;58.78;99194.31;5068494;28;20086;-65
2022/01/20 05:34:20;;;;;;;5.38;3.80;;;;;;;3.90;58.97;99267.78;5068465;28;20049;-65
2022/01/20 05:36:52;;;;;;;8.40;4.68;;;;;;;3.90;58.80;99252.06;5067048;28;20061;-65
2022/01/20 05:39:25;;;;;;;5.30;3.92;;;;;;;3.88;58.96;99242.53;5068176;28;20095;-65
2022/01/20 05:41:59;;;;;;;6.55;4.38;;;;;;;3.85;59.18;99256.59;5068045;28;20044;-65
2022/01/20 05:44:31;;;;;;;6.38;4.43;;;;;;;3.56;59.09;99188.44;5067985;28;20105;-65
2022/01/20 05:47:09;;;;;;;6.15;4.72;;;;;;;3.85;59.36;99251.34;5068296;28;20067;-65
2022/01/20 05:49:41;;;;;;;6.47;4.85;;;;;;;3.85;59.31;99223.38;5067778;28;20033;-65
2022/01/20 05:52:15;;;;;;;6.35;4.10;;;;;;;3.82;59.32;99239.19;5067851;28;20087;-65
2022/01/20 05:54:47;;;;;;;5.72;4.45;;;;;;;3.80;59.50;99253.25;5067907;28;20103;-65
2022/01/20 05:57:21;;;;;;;6.82;4.10;;;;;;;3.80;59.63;99237.50;5067720;28;20094;-65
2022/01/20 05:59:55;;;;;;;5.90;3.85;;;;;;;3.51;59.62;99199.91;5068003;28;20177;-65
2022/01/20 06:02:34;;;;;;;4.68;3.63;;;;;;;3.79;59.47;99767.97;5067695;28;20285;-65
2022/01/20 06:05:07;;;;;;;6.65;4.63;;;;;;;3.77;60.05;99222.72;5066741;28;20099;-65
2022/01/20 06:07:40;;;;;;;6.57;4.28;;;;;;;3.76;60.30;99241.13;5068017;28;20055;-65
2022/01/20 06:10:12;;;;;;;4.75;3.58;;;;;;;3.76;60.23;99241.97;5068014;28;20048;-64
2022/01/20 06:12:45;;;;;;;5.07;3.90;;;;;;;3.75;60.46;99240.25;5067680;28;20049;-65
2022/01/20 06:15:18;;;;;;;5.10;3.65;;;;;;;3.73;60.32;99241.22;5066822;28;20044;-65
2022/01/20 06:17:50;;;;;;;6.30;3.70;;;;;;;3.76;60.40;99243.75;5067589;28;20040;-65
2022/01/20 06:20:22;;;;;;;6.30;4.70;;;;;;;3.74;60.45;99235.94;5067910;28;20045;-65
2022/01/20 06:22:55;;;;;;;5.20;4.13;;;;;;;3.73;60.73;99234.22;5067780;28;20085;-65
2022/01/20 06:25:28;;;;;;;4.95;3.63;;;;;;;3.73;60.57;99242.06;5067333;28;20246;-65
2022/01/20 06:28:02;;;;;;;6.60;3.97;;;;;;;3.67;61.25;99249.25;5067208;28;20048;-65
2022/01/20 06:30:34;;;;;;;4.85;3.72;;;;;;;2.73;61.34;99134.91;5067193;28;20044;-65
2022/01/20 06:33:07;;;;;;;6.18;3.85;;;;;;;3.65;61.43;99243.19;5067014;28;20255;-65
2022/01/20 06:35:39;;;;;;;5.68;3.55;;;;;;;3.62;62.04;99238.91;5067016;28;20098;-65
2022/01/20 06:38:12;;;;;;;6.47;4.40;;;;;;;3.32;61.55;99187.38;5066885;28;20182;-65
2022/01/20 06:40:45;;;;;;;6.10;4.70;;;;;;;3.31;61.88;99217.97;5066877;28;20041;-65
2022/01/20 06:43:18;;;;;;;6.72;3.80;;;;;;;3.62;61.60;99227.56;5066388;28;20036;-65
2022/01/20 06:45:51;;;;;;;4.45;3.42;;;;;;;3.62;61.76;99233.66;5067147;28;20041;-65
2022/01/20 06:48:23;;;;;;;5.38;4.20;;;;;;;2.34;62.07;99040.06;5066977;28;20045;-65
2022/01/20 06:50:53;;;;;;;5.63;3.78;;;;;;;3.58;62.28;99224.16;5067015;28;20043;-65
2022/01/20 06:53:23;;;;;;;5.63;4.30;;;;;;;3.57;62.01;99222.47;5066719;28;20087;-65
2022/01/20 06:55:54;;;;;;;4.38;3.38;;;;;;;3.51;62.78;99210.38;5066539;28;20116;-65
2022/01/20 06:58:25;;;;;;;5.43;4.00;;;;;;;3.55;62.72;99234.75;5066743;28;20304;-65
2022/01/20 07:00:54;;;;;;;4.47;3.25;;;;;;;3.55;62.56;99231.25;5065236;28;20319;-65
2022/01/20 07:03:24;;;;;;;5.63;3.97;;;;;;;3.52;62.78;99227.81;5066575;28;20204;-65
2022/01/20 07:05:54;;;;;;;5.55;3.50;;;;;;;3.52;63.12;99242.69;5066583;28;20053;-65
2022/01/20 07:08:24;;;;;;;4.50;3.30;;;;;;;3.51;63.23;99240.97;5066456;28;20112;-65
2022/01/20 07:10:54;;;;;;;5.00;3.60;;;;;;;3.50;63.07;99239.25;5066721;28;20036;-65
2022/01/20 07:13:26;;;;;;;5.18;3.83;;;;;;;3.47;63.56;99244.59;5066793;28;20035;-65
2022/01/20 07:15:55;;;;;;;4.90;3.58;;;;;;;3.41;63.49;99234.28;5066690;28;20047;-65
2022/01/20 07:18:25;;;;;;;4.75;3.28;;;;;;;3.45;63.46;99228.91;5066100;28;20064;-65
2022/01/20 07:20:55;;;;;;;5.95;4.03;;;;;;;3.46;63.63;99235.88;5066214;28;20036;-65
2022/01/20 07:23:25;;;;;;;6.13;3.67;;;;;;;3.47;63.29;99234.97;5066627;28;20044;-65
2022/01/20 07:25:55;;;;;;;5.05;3.22;;;;;;;3.49;63.17;99230.53;5066107;28;20315;-65
2022/01/20 07:28:27;;;;;;;5.68;3.50;;;;;;;1.42;63.51;98890.88;5066353;28;20036;-65
2022/01/20 07:30:55;;;;;;;6.05;4.00;;;;;;;3.47;63.44;99229.72;5066265;28;20029;-65
2022/01/20 07:33:26;;;;;;;4.20;3.47;;;;;;;3.49;63.17;99237.53;5066259;28;20047;-65
2022/01/20 07:35:55;;;;;;;5.97;4.00;;;;;;;3.45;63.89;99235.91;5066720;28;20101;-65
2022/01/20 07:38:26;;;;;;;4.88;3.28;;;;;;;3.43;63.99;99250.81;5065091;28;20079;-65
2022/01/20 07:40:56;;;;;;;5.43;4.13;;;;;;;3.43;63.86;99237.72;5065747;28;20049;-65
2022/01/20 07:43:27;;;;;;;5.45;3.13;;;;;;;3.46;63.38;99251.59;5065002;28;20036;-65
2022/01/20 07:45:57;;;;;;;4.25;3.53;;;;;;;3.44;64.00;99250.78;5065664;28;20037;-65
2022/01/20 07:48:26;;;;;;;4.80;3.28;;;;;;;3.10;64.02;99198.47;5065220;28;20059;-65
2022/01/20 07:50:56;;;;;;;4.60;3.03;;;;;;;3.46;63.75;99250.72;5065823;28;20059;-65
2022/01/20 07:53:27;;;;;;;4.38;3.38;;;;;;;3.46;63.53;99237.63;5065756;28;20292;-65
2022/01/20 07:55:57;;;;;;;5.35;3.35;;;;;;;3.45;64.16;99223.66;5065524;28;20041;-65
2022/01/20 07:58:28;;;;;;;4.80;3.00;;;;;;;3.43;63.90;99243.81;5065686;28;20285;-65
2022/01/20 08:00:57;;;;;;;4.32;3.33;;;;;;;3.42;64.19;99242.09;5065641;28;20037;-65
2022/01/20 08:03:27;;;;;;;5.30;3.00;;;;;;;3.45;64.42;99249.88;5066164;28;20079;-65
2022/01/20 08:05:57;;;;;;;3.88;2.85;;;;;;;3.44;64.41;99249.91;5065232;28;20061;-65
2022/01/20 08:08:27;;;;;;;4.38;3.38;;;;;;;3.47;63.98;99239.34;5065514;28;20033;-65
2022/01/20 08:10:57;;;;;;;4.47;3.28;;;;;;;3.46;64.31;99240.25;5065632;28;20212;-65
2022/01/20 08:13:29;;;;;;;4.35;3.13;;;;;;;3.46;64.08;99230.63;5064479;28;20200;-65
2022/01/20 08:15:58;;;;;;;5.45;3.58;;;;;;;3.47;64.08;99237.59;5048381;28;20052;-65
2022/01/20 08:18:28;;;;;;;7.57;3.08;;;;;;;3.50;63.97;99253.22;5065176;28;20086;-65
2022/01/20 08:20:58;;;;;;;6.15;3.72;;;;;;;3.20;64.33;99213.03;5065254;28;20041;-64
2022/01/20 08:23:28;;;;;;;4.88;3.17;;;;;;;3.47;64.08;99258.53;5065365;28;20044;-65
2022/01/20 08:25:58;;;;;;;3.40;2.78;;;;;;;3.49;64.44;99261.13;5065109;28;20075;-64
2022/01/20 08:28:30;;;;;;;4.43;2.75;;;;;;;3.47;64.51;99244.59;5065009;28;20103;-65
2022/01/20 08:30:58;;;;;;;4.15;3.00;;;;;;;1.74;63.93;98960.59;5065049;28;20036;-64
2022/01/20 08:33:28;;;;;;;3.83;2.63;;;;;;;3.48;64.54;99273.38;5065077;28;20063;-64
2022/01/20 08:35:59;;;;;;;4.07;2.85;;;;;;;3.48;64.31;99277.75;5064966;28;20061;-65
2022/01/20 08:38:29;;;;;;;4.03;2.67;;;;;;;3.49;64.18;99282.94;5065272;28;20053;-65
2022/01/20 08:40:59;;;;;;;3.60;3.10;;;;;;;3.49;64.43;99279.47;5064864;28;20071;-65
2022/01/20 08:43:38;;;;;;;4.35;2.88;;;;;;;3.48;64.53;99273.38;5064989;28;20108;-65
2022/01/20 08:46:11;;;;;;;5.18;2.88;;;;;;;3.48;64.28;99291.72;5065112;28;20045;-65
2022/01/20 08:48:43;;;;;;;3.95;2.92;;;;;;;3.48;64.66;99275.97;5064882;28;20091;-65
2022/01/20 08:51:16;;;;;;;4.78;2.90;;;;;;;3.48;64.47;99275.13;5065036;28;20044;-65
2022/01/20 08:53:48;;;;;;;4.80;3.00;;;;;;;3.45;64.56;99251.63;5064935;28;20048;-65
2022/01/20 08:56:20;;;;;;;4.18;2.97;;;;;;;3.15;64.45;99203.56;5065105;28;20041;-65
2022/01/20 08:58:53;;;;;;;4.25;3.30;;;;;;;3.46;64.52;99248.09;5064887;28;20045;-65
2022/01/20 09:01:26;;;;;;;4.97;3.17;;;;;;;3.45;64.71;99251.63;5064785;28;20041;-65
2022/01/20 09:03:58;;;;;;;4.40;3.08;;;;;;;3.46;64.54;99248.09;5064386;28;20045;-65
2022/01/20 09:06:30;;;;;;;4.18;2.83;;;;;;;3.46;64.25;99245.50;5064672;28;20045;-65
2022/01/20 09:09:04;;;;;;;4.10;2.83;;;;;;;3.43;64.55;99235.94;5064703;28;20095;-65
2022/01/20 09:11:44;;;;;;;4.18;3.10;;;;;;;3.46;64.18;99230.63;5064669;28;20041;-65
2022/01/20 09:17:08;;;;;;;4.68;2.63;;;;;;;3.46;64.51;99225.38;5063603;28;20041;-65
2022/01/20 09:19:40;;;;;;;4.20;3.40;;;;;;;3.47;64.21;99215.75;5064404;28;20087;-65
2022/01/20 09:22:12;;;;;;;4.90;3.28;;;;;;;3.15;63.89;99166.91;5064485;28;20040;-65
2022/01/20 09:24:45;;;;;;;4.70;3.08;;;;;;;3.20;63.98;99175.50;5065774;28;20045;-65
2022/01/20 09:27:19;;;;;;;4.65;2.70;;;;;;;3.56;64.08;99230.38;5068389;28;20091;-65
2022/01/20 09:29:53;;;;;;;5.10;3.28;;;;;;;3.59;64.02;99228.50;5067287;28;20053;-65
2022/01/20 09:32:27;;;;;;;4.40;2.75;;;;;;;3.39;63.60;99196.78;5068272;28;20040;-65
2022/01/20 09:34:59;;;;;;;5.05;3.40;;;;;;;3.68;63.77;99236.09;5068394;28;20355;-65
2022/01/20 09:37:31;;;;;;;4.72;3.08;;;;;;;3.70;63.87;99249.16;5067850;28;20289;-65
2022/01/20 09:40:04;;;;;;;3.53;2.42;;;;;;;3.48;63.89;99200.00;5068058;28;20049;-65
2022/01/20 09:42:37;;;;;;;4.03;2.28;;;;;;;3.38;63.67;99181.97;5067746;28;20045;-65
2022/01/20 09:45:11;;;;;;;3.70;2.65;;;;;;;3.70;63.55;99236.06;5067643;28;20078;-65
2022/01/20 09:47:44;;;;;;;3.75;2.70;;;;;;;3.70;63.21;99244.78;5067751;28;20091;-65
2022/01/20 09:50:19;;;;;;;4.20;2.70;;;;;;;3.77;62.97;99227.13;5067846;28;20044;-65
2022/01/20 09:52:52;;;;;;;;;;;;;;;3.72;63.78;99226.41;5068234;28;20052;-65
2022/01/20 09:55:24;;;;;;;3.80;2.40;;;;;;;3.73;63.41;99230.72;5067808;28;19966;-65
2022/01/20 09:57:56;;;;;;;5.13;3.05;;;;;;;3.79;63.19;99230.56;5067939;28;20087;-64
2022/01/20 10:00:30;;;;;;;5.07;2.95;;;;;;;2.31;62.90;98956.47;5067556;28;20091;-65
2022/01/20 10:03:06;;;;;;;3.47;2.58;;;;;;;3.85;62.95;99219.88;5067647;28;20241;-65
2022/01/20 10:05:41;;;;;;;5.05;2.88;;;;;;;3.85;62.64;99227.75;5067288;28;20056;-65
2022/01/20 10:08:17;;;;;;;3.92;2.75;;;;;;;3.90;62.61;99225.84;5067542;28;20086;-65
2022/01/20 10:10:52;;;;;;;4.85;3.53;;;;;;;3.27;62.61;99111.56;5067468;28;20102;-63
2022/01/20 10:13:25;;;;;;;;;;;;;;;3.86;63.18;99213.72;5067714;28;20041;-64
2022/01/20 10:16:04;;;;;;;4.30;2.70;;;;;;;3.90;63.08;99207.50;5067268;28;20233;-63
2022/01/20 10:18:34;;;;;;;4.22;2.70;;;;;;;3.92;62.77;99189.94;5067559;28;20057;-64
2022/01/20 10:21:04;;;;;;;3.55;2.80;;;;;;;3.00;63.03;99067.84;5067151;28;20041;-64
2022/01/20 10:23:36;;;;;;;4.93;2.85;;;;;;;3.97;62.91;99189.81;5067337;28;20178;-64
2022/01/20 10:26:14;;;;;;;3.95;2.60;;;;;;;3.96;62.85;99183.69;5067188;28;20091;-63
2022/01/20 10:28:53;;;;;;;4.00;2.70;;;;;;;2.74;63.00;99042.44;5067252;28;20087;-63
2022/01/20 10:31:38;;;;;;;4.60;2.78;;;;;;;3.35;63.02;99067.66;5067305;28;20094;-64
2022/01/20 10:34:19;;;;;;;;;;;;;;;3.98;63.30;99160.91;5067450;28;20040;-64
2022/01/20 10:36:55;;;;;;;3.83;2.85;;;;;;;4.00;62.80;99169.59;5065595;28;19917;-64
2022/01/20 10:39:29;;;;;;;4.07;2.58;;;;;;;4.04;62.67;99173.84;5067072;28;20228;-64
2022/01/20 10:42:04;;;;;;;5.45;3.47;;;;;;;4.21;62.33;99172.47;5067011;28;20045;-65
2022/01/20 10:44:45;;;;;;;3.55;2.60;;;;;;;4.45;62.61;99156.78;5066973;28;20083;-65
2022/01/20 10:47:20;;;;;;;3.70;2.67;;;;;;;4.67;61.34;99169.19;5066831;28;20044;-65
2022/01/20 10:49:53;;;;;;;4.50;2.60;;;;;;;4.61;61.06;99093.25;5067340;28;20342;-65
2022/01/20 10:52:35;;;;;;;3.78;2.75;;;;;;;4.55;60.49;99051.50;5067086;28;20041;-65
2022/01/20 10:55:20;;;;;;;3.97;2.90;;;;;;;5.07;60.07;99134.53;5066123;28;20045;-65
2022/01/20 10:57:53;;;;;;;4.53;2.85;;;;;;;5.25;60.01;99139.09;5066524;28;20091;-65
2022/01/20 11:00:26;;;;;;;4.18;3.13;;;;;;;5.42;59.05;99128.81;5066448;28;20045;-66
2022/01/20 11:03:01;;;;;;;3.65;2.60;;;;;;;5.71;58.54;99118.97;5066999;28;20036;-65
2022/01/20 11:05:33;;;;;;;4.43;3.08;;;;;;;4.63;57.54;98911.19;5066211;28;20057;-65
2022/01/20 11:08:06;;;;;;;3.65;2.35;;;;;;;5.90;57.55;99088.38;5067236;28;20086;-65
2022/01/20 11:10:40;;;;;;;3.90;2.80;;;;;;;6.19;57.34;99091.59;5066461;28;20036;-65
2022/01/20 11:13:17;;;;;;;4.03;2.90;;;;;;;6.27;56.31;99121.06;5066831;28;20165;-65
2022/01/20 11:15:49;;;;;;;5.55;2.70;;;;;;;6.29;56.05;99120.09;5066337;28;20091;-65
2022/01/20 11:18:28;;;;;;;3.50;2.65;;;;;;;6.17;55.52;99102.19;5066148;28;20048;-65
2022/01/20 11:20:59;;;;;;;3.45;2.88;;;;;;;5.82;56.67;99042.28;5066415;28;20044;-65
2022/01/20 11:23:36;;;;;;;3.75;2.45;;;;;;;5.99;55.77;99076.63;5065586;28;20052;-65
2022/01/20 11:26:09;;;;;;;4.03;2.95;;;;;;;5.90;56.88;99075.22;5066533;28;20324;-65
2022/01/20 11:28:41;;;;;;;4.97;2.63;;;;;;;4.93;56.31;98903.06;5066572;28;20048;-66
2022/01/20 11:31:13;;;;;;;3.92;2.85;;;;;;;6.21;55.80;99076.59;5065645;28;20293;-66
2022/01/20 11:33:48;;;;;;;3.72;2.65;;;;;;;6.06;54.86;99047.38;5066685;28;20086;-66
2022/01/20 11:36:26;;;;;;;4.13;2.50;;;;;;;6.08;54.16;99026.25;5066150;28;20120;-66
2022/01/20 11:39:01;;;;;;;5.45;3.03;;;;;;;5.71;54.51;98987.50;5066130;28;20041;-65
2022/01/20 11:41:35;;;;;;;3.50;2.60;;;;;;;6.53;54.08;99078.72;5065490;28;20044;-65
2022/01/20 11:44:10;;;;;;;4.25;3.00;;;;;;;6.66;54.30;99061.47;5066064;28;20243;-65
2022/01/20 11:46:44;;;;;;;3.72;2.13;;;;;;;6.71;52.62;99064.75;5066128;28;20044;-66
2022/01/20 11:49:19;;;;;;;3.17;2.33;;;;;;;6.01;53.28;98914.31;5066162;28;20083;-65
2022/01/20 11:51:55;;;;;;;3.30;2.55;;;;;;;6.94;52.43;99065.53;5066040;28;20087;-65
2022/01/20 11:54:30;;;;;;;3.88;2.53;;;;;;;7.03;52.57;99039.63;5048591;28;20124;-65
2022/01/20 11:57:09;;;;;;;3.80;2.30;;;;;;;7.14;51.42;99023.31;5064962;28;20311;-65
2022/01/20 11:59:44;;;;;;;2.88;2.10;;;;;;;6.88;51.44;98981.50;5064774;28;20056;-65
2022/01/20 12:02:27;;;;;;;3.63;2.45;;;;;;;6.03;50.23;98852.81;5066211;28;20032;-66
2022/01/20 12:05:02;;;;;;;3.20;2.22;;;;;;;6.87;50.84;98971.91;5065626;28;20059;-65
2022/01/20 12:07:35;;;;;;;3.92;2.30;;;;;;;7.37;50.03;99023.13;5065758;28;20041;-64
2022/01/20 12:10:11;;;;;;;4.93;2.30;;;;;;;7.17;50.24;98966.97;5066103;28;20049;-65
2022/01/20 12:12:44;;;;;;;3.63;2.35;;;;;;;7.15;49.86;98940.69;5065882;28;20064;-65
2022/01/20 12:15:20;;;;;;;3.80;2.25;;;;;;;7.58;50.86;98994.88;5064819;28;20189;-65
2022/01/20 12:17:54;;;;;;;3.15;2.25;;;;;;;7.65;49.57;99021.81;5065496;28;20048;-65
2022/01/20 12:20:28;;;;;;;4.27;2.70;;;;;;;6.93;49.04;98913.66;5065647;28;20055;-65
2022/01/20 12:23:00;;;;;;;3.45;2.45;;;;;;;7.55;50.72;98996.81;5065093;28;20387;-66
2022/01/20 12:25:33;;;;;;;3.03;2.33;;;;;;;7.53;48.81;99007.44;5065880;28;20125;-65
2022/01/20 12:28:08;;;;;;;4.63;2.20;;;;;;;7.53;48.76;99002.16;5064653;28;20049;-65
2022/01/20 12:30:47;;;;;;;3.75;2.30;;;;;;;7.30;49.56;98979.50;5065074;28;20048;-65
2022/01/20 12:33:23;;;;;;;2.78;1.92;;;;;;;7.54;49.99;99024.97;5065272;28;20087;-65
2022/01/20 12:36:02;;;;;;;4.90;2.28;;;;;;;7.60;47.76;99018.53;5065509;28;20041;-65
2022/01/20 12:38:32;;;;;;;4.50;2.45;;;;;;;6.00;48.48;98754.78;5064518;28;20079;-66
2022/01/20 12:41:05;;;;;;;3.83;2.47;;;;;;;7.68;47.55;99014.59;5065277;28;20120;-66
2022/01/20 12:43:41;;;;;;;3.75;2.70;;;;;;;7.59;47.91;99007.13;5064305;28;20044;-66
2022/01/20 12:46:15;;;;;;;4.05;2.80;;;;;;;6.76;49.36;98898.63;5065337;28;20041;-67
2022/01/20 12:48:57;;;;;;;3.95;2.47;;;;;;;7.16;48.90;99018.84;5065060;28;20125;-65
2022/01/20 12:51:34;;;;;;;5.18;2.50;;;;;;;6.79;49.75;99011.72;5064885;28;20087;-66
2022/01/20 12:54:11;;;;;;;4.82;2.50;;;;;;;6.63;50.89;99003.66;5065184;28;20051;-63
2022/01/20 12:56:45;;;;;;;2.63;1.90;;;;;;;6.49;51.51;99011.31;5064962;28;20150;-66
2022/01/20 12:59:24;;;;;;;4.43;2.60;;;;;;;6.29;51.24;99004.28;5065118;28;20048;-67
2022/01/20 13:02:00;;;;;;;3.35;2.22;;;;;;;6.23;52.00;99040.53;5068589;28;20169;-65
2022/01/20 13:04:35;;;;;;;4.03;3.17;;;;;;;6.17;52.99;98999.56;5068115;28;20083;-66